Berrien Springs, MI

5:10 PM EST on February 01, 2015 (GMT -0500)
Southwest Michigan Regional | Change Station
CLOSE
Current Station
Airport
Location: Benton Harbor,
Elevation: 643 ft
Nearby Weather Stations
Active Advisory: Winter Storm Warning Active Notice: Local Storm Report

Elev 643 ft 42.13 °N, 86.43 °W | Updated 26 minutes ago

Snow
Snow
18 °F
Feels Like 5 °F
N
13
Wind Variable Wind from ENE
Gusts 24 mph

Today
High -- | Low -- °F
--% Chance of Precip.
Yesterday
High -- | Low -- °F
Precip. -- in
7:58 AM 6:00 PM
Waxing Gibbous, 96% visible
Pressure 29.75 in
Visibility 0.2 miles
Clouds
Windchill 5 °F
Dew Point 16 °F
Humidity 92%
Rainfall 0.16 in
Snow Depth Not available.
UV Not available.
Pollen .10 out of 12
Air Quality Not available.
Flu Activity Not available.
SPECI KBEH 012144Z AUTO 06011G21KT 1/4SM SN FZFG VV008 M08/M09 A2975 RMK AO2 PK WND 07026/2102 P0000 T10781089

More Conditions Fewer Conditions

Pressure 29.75 in
Visibility 0.2 miles
Clouds
Windchill 5 °F
Dew Point 16 °F
Humidity 92%
Rainfall 0.16 in
Snow Depth Not available.
UV Not available.
Pollen .10 out of 12
Air Quality Not available.
Flu Activity Not available.
SPECI KBEH 012144Z AUTO 06011G21KT 1/4SM SN FZFG VV008 M08/M09 A2975 RMK AO2 PK WND 07026/2102 P0000 T10781089

More Conditions Fewer Conditions

10-Day Weather Forecast

Almanac

Astronomy

Feb. 01, 2015 Rise Set
Actual Time
Civil Twilight
Nautical Twilight
Astronomical Twilight
Moon
Length of Visible Light
Length of Day
Tomorrow will be .
, % of the Moon is Illuminated

Today's Extremes

State Highs State Lows

Community

WunderPhotos

Upload Photos

1,792,563 photos uploaded!

WunderBlogs® & News

Nearby

Air Quality

  Air Quality AQ Index Pollutant
Not available.

Snow Depth

Station Depth Elevation

Earthquake Activity

City Distance Mag. Time & Date
Minimum magnitude displayed is 2.5.

Coastal Water Temperatures

Place Temperature

Nearby Weather Stations